sensor_id;sensor_type;location;lat;lon;timestamp;P1;durP1;ratioP1;P2;durP2;ratioP2
28028;SDS011;15345;59.364;18.016;2022-12-29T00:00:30;60.42;;;5.85;;
28028;SDS011;15345;59.364;18.016;2022-12-29T00:01:49;139.32;;;13.32;;
28028;SDS011;15345;59.364;18.016;2022-12-29T00:03:10;191.60;;;11.05;;
28028;SDS011;15345;59.364;18.016;2022-12-29T00:04:29;102.15;;;10.23;;
28028;SDS011;15345;59.364;18.016;2022-12-29T00:05:53;57.28;;;5.25;;
28028;SDS011;15345;59.364;18.016;2022-12-29T00:07:12;46.70;;;5.13;;
28028;SDS011;15345;59.364;18.016;2022-12-29T00:08:31;130.45;;;10.00;;
28028;SDS011;15345;59.364;18.016;2022-12-29T00:09:59;48.45;;;5.70;;
28028;SDS011;15345;59.364;18.016;2022-12-29T00:11:18;53.38;;;5.47;;
28028;SDS011;15345;59.364;18.016;2022-12-29T00:12:37;86.18;;;7.80;;
28028;SDS011;15345;59.364;18.016;2022-12-29T00:14:15;61.58;;;6.32;;
28028;SDS011;15345;59.364;18.016;2022-12-29T00:15:53;62.60;;;6.32;;
28028;SDS011;15345;59.364;18.016;2022-12-29T00:17:12;84.15;;;7.55;;
28028;SDS011;15345;59.364;18.016;2022-12-29T00:18:31;69.25;;;7.30;;
28028;SDS011;15345;59.364;18.016;2022-12-29T00:19:50;33.65;;;6.25;;
28028;SDS011;15345;59.364;18.016;2022-12-29T00:21:28;127.35;;;9.05;;
28028;SDS011;15345;59.364;18.016;2022-12-29T00:23:07;38.53;;;6.00;;
28028;SDS011;15345;59.364;18.016;2022-12-29T00:24:45;36.15;;;6.05;;
28028;SDS011;15345;59.364;18.016;2022-12-29T00:26:14;82.80;;;7.43;;
28028;SDS011;15345;59.364;18.016;2022-12-29T00:27:52;27.23;;;5.15;;
28028;SDS011;15345;59.364;18.016;2022-12-29T00:29:30;55.95;;;6.10;;
28028;SDS011;15345;59.364;18.016;2022-12-29T00:31:10;207.45;;;12.68;;
28028;SDS011;15345;59.364;18.016;2022-12-29T00:32:49;44.63;;;6.15;;
28028;SDS011;15345;59.364;18.016;2022-12-29T00:34:27;41.33;;;5.85;;
28028;SDS011;15345;59.364;18.016;2022-12-29T00:36:18;114.70;;;10.13;;
28028;SDS011;15345;59.364;18.016;2022-12-29T00:37:40;52.17;;;6.22;;
28028;SDS011;15345;59.364;18.016;2022-12-29T00:39:18;50.15;;;6.50;;
28028;SDS011;15345;59.364;18.016;2022-12-29T00:40:56;56.63;;;6.80;;
28028;SDS011;15345;59.364;18.016;2022-12-29T00:42:34;196.27;;;13.07;;
28028;SDS011;15345;59.364;18.016;2022-12-29T00:44:12;120.95;;;11.02;;
28028;SDS011;15345;59.364;18.016;2022-12-29T00:45:31;87.90;;;8.07;;
28028;SDS011;15345;59.364;18.016;2022-12-29T00:46:50;142.02;;;11.55;;
28028;SDS011;15345;59.364;18.016;2022-12-29T00:48:09;287.63;;;17.65;;
28028;SDS011;15345;59.364;18.016;2022-12-29T00:49:27;108.35;;;8.93;;
28028;SDS011;15345;59.364;18.016;2022-12-29T00:50:49;132.05;;;10.90;;
28028;SDS011;15345;59.364;18.016;2022-12-29T00:52:14;258.05;;;16.00;;
28028;SDS011;15345;59.364;18.016;2022-12-29T00:53:32;76.10;;;7.18;;
28028;SDS011;15345;59.364;18.016;2022-12-29T00:54:51;111.45;;;10.95;;
28028;SDS011;15345;59.364;18.016;2022-12-29T00:56:10;195.65;;;13.32;;
28028;SDS011;15345;59.364;18.016;2022-12-29T00:57:29;67.60;;;7.90;;
28028;SDS011;15345;59.364;18.016;2022-12-29T00:58:48;117.63;;;10.77;;
28028;SDS011;15345;59.364;18.016;2022-12-29T01:00:07;130.23;;;9.98;;
28028;SDS011;15345;59.364;18.016;2022-12-29T01:01:26;218.70;;;16.73;;
28028;SDS011;15345;59.364;18.016;2022-12-29T01:02:45;335.65;;;19.80;;
28028;SDS011;15345;59.364;18.016;2022-12-29T01:04:04;193.55;;;13.48;;
28028;SDS011;15345;59.364;18.016;2022-12-29T01:05:24;282.00;;;18.52;;
28028;SDS011;15345;59.364;18.016;2022-12-29T01:06:43;273.73;;;16.25;;
28028;SDS011;15345;59.364;18.016;2022-12-29T01:08:02;258.67;;;16.42;;
28028;SDS011;15345;59.364;18.016;2022-12-29T01:09:21;159.90;;;13.65;;
28028;SDS011;15345;59.364;18.016;2022-12-29T01:10:59;127.78;;;10.00;;
28028;SDS011;15345;59.364;18.016;2022-12-29T01:12:18;90.10;;;9.07;;
28028;SDS011;15345;59.364;18.016;2022-12-29T01:13:57;74.50;;;9.20;;
28028;SDS011;15345;59.364;18.016;2022-12-29T01:15:16;123.53;;;10.85;;
28028;SDS011;15345;59.364;18.016;2022-12-29T01:16:35;57.05;;;8.38;;
28028;SDS011;15345;59.364;18.016;2022-12-29T01:17:55;112.45;;;8.73;;
28028;SDS011;15345;59.364;18.016;2022-12-29T01:19:14;88.85;;;11.18;;
28028;SDS011;15345;59.364;18.016;2022-12-29T01:20:34;89.45;;;10.63;;
28028;SDS011;15345;59.364;18.016;2022-12-29T01:21:52;127.53;;;9.55;;
28028;SDS011;15345;59.364;18.016;2022-12-29T01:23:11;69.38;;;7.10;;
28028;SDS011;15345;59.364;18.016;2022-12-29T01:24:31;139.07;;;11.77;;
28028;SDS011;15345;59.364;18.016;2022-12-29T01:25:50;119.32;;;10.93;;
28028;SDS011;15345;59.364;18.016;2022-12-29T01:27:08;149.20;;;11.50;;
28028;SDS011;15345;59.364;18.016;2022-12-29T01:28:27;129.90;;;10.48;;
28028;SDS011;15345;59.364;18.016;2022-12-29T01:29:46;82.13;;;7.78;;
28028;SDS011;15345;59.364;18.016;2022-12-29T01:31:08;72.63;;;8.38;;
28028;SDS011;15345;59.364;18.016;2022-12-29T01:32:27;105.75;;;9.50;;
28028;SDS011;15345;59.364;18.016;2022-12-29T01:33:46;260.60;;;18.48;;
28028;SDS011;15345;59.364;18.016;2022-12-29T01:35:06;131.68;;;11.00;;
28028;SDS011;15345;59.364;18.016;2022-12-29T01:36:25;107.13;;;9.27;;
28028;SDS011;15345;59.364;18.016;2022-12-29T01:37:44;105.82;;;10.40;;
28028;SDS011;15345;59.364;18.016;2022-12-29T01:39:03;72.10;;;7.95;;
28028;SDS011;15345;59.364;18.016;2022-12-29T01:40:22;67.00;;;7.30;;
28028;SDS011;15345;59.364;18.016;2022-12-29T01:41:41;125.35;;;10.88;;
28028;SDS011;15345;59.364;18.016;2022-12-29T01:43:00;210.50;;;13.73;;
28028;SDS011;15345;59.364;18.016;2022-12-29T01:45:56;185.38;;;12.45;;
28028;SDS011;15345;59.364;18.016;2022-12-29T01:47:18;66.28;;;7.32;;
28028;SDS011;15345;59.364;18.016;2022-12-29T01:48:39;337.17;;;21.73;;
28028;SDS011;15345;59.364;18.016;2022-12-29T01:49:59;92.13;;;8.07;;
28028;SDS011;15345;59.364;18.016;2022-12-29T01:51:20;209.25;;;12.98;;
28028;SDS011;15345;59.364;18.016;2022-12-29T01:52:42;104.50;;;9.15;;
28028;SDS011;15345;59.364;18.016;2022-12-29T01:54:01;223.98;;;15.13;;
28028;SDS011;15345;59.364;18.016;2022-12-29T01:55:21;226.10;;;16.65;;
28028;SDS011;15345;59.364;18.016;2022-12-29T01:56:40;236.85;;;15.25;;
28028;SDS011;15345;59.364;18.016;2022-12-29T01:58:01;94.32;;;9.45;;
28028;SDS011;15345;59.364;18.016;2022-12-29T01:59:22;260.55;;;16.40;;
28028;SDS011;15345;59.364;18.016;2022-12-29T02:00:41;96.70;;;9.32;;
28028;SDS011;15345;59.364;18.016;2022-12-29T02:02:04;40.72;;;7.22;;
28028;SDS011;15345;59.364;18.016;2022-12-29T02:03:23;194.35;;;15.80;;
28028;SDS011;15345;59.364;18.016;2022-12-29T02:04:44;56.33;;;7.95;;
28028;SDS011;15345;59.364;18.016;2022-12-29T02:06:07;69.20;;;8.00;;
28028;SDS011;15345;59.364;18.016;2022-12-29T02:07:27;68.50;;;8.30;;
28028;SDS011;15345;59.364;18.016;2022-12-29T02:08:47;84.28;;;8.32;;
28028;SDS011;15345;59.364;18.016;2022-12-29T02:10:07;143.20;;;11.15;;
28028;SDS011;15345;59.364;18.016;2022-12-29T02:11:26;43.40;;;6.70;;
28028;SDS011;15345;59.364;18.016;2022-12-29T02:12:47;27.83;;;5.25;;
28028;SDS011;15345;59.364;18.016;2022-12-29T02:14:10;22.33;;;6.13;;
28028;SDS011;15345;59.364;18.016;2022-12-29T02:15:40;34.25;;;5.80;;
28028;SDS011;15345;59.364;18.016;2022-12-29T02:18:44;149.65;;;11.85;;
28028;SDS011;15345;59.364;18.016;2022-12-29T02:20:13;105.20;;;9.20;;
28028;SDS011;15345;59.364;18.016;2022-12-29T02:25:02;31.25;;;6.75;;
28028;SDS011;15345;59.364;18.016;2022-12-29T02:29:43;58.50;;;8.20;;
28028;SDS011;15345;59.364;18.016;2022-12-29T02:35:37;45.92;;;7.85;;
28028;SDS011;15345;59.364;18.016;2022-12-29T02:37:02;27.60;;;6.97;;
28028;SDS011;15345;59.364;18.016;2022-12-29T02:40:07;37.72;;;7.80;;
28028;SDS011;15345;59.364;18.016;2022-12-29T02:42:50;26.35;;;7.68;;
28028;SDS011;15345;59.364;18.016;2022-12-29T02:44:27;45.33;;;8.13;;
28028;SDS011;15345;59.364;18.016;2022-12-29T02:45:53;38.17;;;9.20;;
28028;SDS011;15345;59.364;18.016;2022-12-29T02:47:17;35.50;;;9.10;;
28028;SDS011;15345;59.364;18.016;2022-12-29T02:49:03;43.90;;;9.07;;
28028;SDS011;15345;59.364;18.016;2022-12-29T02:50:22;33.00;;;8.23;;
28028;SDS011;15345;59.364;18.016;2022-12-29T02:52:01;38.90;;;7.80;;
28028;SDS011;15345;59.364;18.016;2022-12-29T02:53:22;46.28;;;8.48;;
28028;SDS011;15345;59.364;18.016;2022-12-29T02:55:02;35.13;;;8.90;;
28028;SDS011;15345;59.364;18.016;2022-12-29T02:56:21;26.23;;;7.88;;
28028;SDS011;15345;59.364;18.016;2022-12-29T02:57:40;43.80;;;9.70;;
28028;SDS011;15345;59.364;18.016;2022-12-29T02:58:59;44.17;;;9.48;;
28028;SDS011;15345;59.364;18.016;2022-12-29T03:00:17;44.03;;;9.90;;
28028;SDS011;15345;59.364;18.016;2022-12-29T03:05:57;25.52;;;8.63;;
28028;SDS011;15345;59.364;18.016;2022-12-29T03:07:22;35.08;;;8.93;;
28028;SDS011;15345;59.364;18.016;2022-12-29T03:11:38;36.78;;;9.57;;
28028;SDS011;15345;59.364;18.016;2022-12-29T03:15:45;36.65;;;9.45;;
28028;SDS011;15345;59.364;18.016;2022-12-29T03:17:25;37.92;;;9.43;;
28028;SDS011;15345;59.364;18.016;2022-12-29T03:20:06;38.25;;;9.68;;
28028;SDS011;15345;59.364;18.016;2022-12-29T03:21:45;33.20;;;10.05;;
28028;SDS011;15345;59.364;18.016;2022-12-29T03:23:24;39.80;;;9.73;;
28028;SDS011;15345;59.364;18.016;2022-12-29T03:24:45;41.33;;;10.00;;
28028;SDS011;15345;59.364;18.016;2022-12-29T03:26:07;39.22;;;9.75;;
28028;SDS011;15345;59.364;18.016;2022-12-29T03:27:31;41.30;;;9.93;;
28028;SDS011;15345;59.364;18.016;2022-12-29T03:28:52;45.15;;;9.75;;
28028;SDS011;15345;59.364;18.016;2022-12-29T03:30:12;43.38;;;10.27;;
28028;SDS011;15345;59.364;18.016;2022-12-29T03:31:32;38.30;;;10.25;;
28028;SDS011;15345;59.364;18.016;2022-12-29T03:33:09;42.85;;;11.07;;
28028;SDS011;15345;59.364;18.016;2022-12-29T03:34:29;37.08;;;10.38;;
28028;SDS011;15345;59.364;18.016;2022-12-29T03:35:48;44.22;;;10.02;;
28028;SDS011;15345;59.364;18.016;2022-12-29T03:37:12;48.72;;;11.02;;
28028;SDS011;15345;59.364;18.016;2022-12-29T03:38:34;35.15;;;10.48;;
28028;SDS011;15345;59.364;18.016;2022-12-29T03:39:54;37.03;;;11.07;;
28028;SDS011;15345;59.364;18.016;2022-12-29T03:41:14;50.65;;;11.02;;
28028;SDS011;15345;59.364;18.016;2022-12-29T03:42:35;42.70;;;10.75;;
28028;SDS011;15345;59.364;18.016;2022-12-29T03:43:55;44.33;;;10.90;;
28028;SDS011;15345;59.364;18.016;2022-12-29T03:45:14;36.15;;;10.88;;
28028;SDS011;15345;59.364;18.016;2022-12-29T03:46:33;49.58;;;11.18;;
28028;SDS011;15345;59.364;18.016;2022-12-29T03:47:52;46.53;;;11.07;;
28028;SDS011;15345;59.364;18.016;2022-12-29T03:49:12;44.00;;;11.38;;
28028;SDS011;15345;59.364;18.016;2022-12-29T03:50:30;41.10;;;11.40;;
28028;SDS011;15345;59.364;18.016;2022-12-29T03:51:49;42.55;;;11.13;;
28028;SDS011;15345;59.364;18.016;2022-12-29T03:53:08;50.83;;;11.48;;
28028;SDS011;15345;59.364;18.016;2022-12-29T03:54:27;41.13;;;10.77;;
28028;SDS011;15345;59.364;18.016;2022-12-29T03:55:46;42.03;;;11.65;;
28028;SDS011;15345;59.364;18.016;2022-12-29T03:57:05;37.75;;;11.00;;
28028;SDS011;15345;59.364;18.016;2022-12-29T03:58:24;35.58;;;10.60;;
28028;SDS011;15345;59.364;18.016;2022-12-29T03:59:43;38.00;;;11.80;;
28028;SDS011;15345;59.364;18.016;2022-12-29T04:01:02;38.55;;;11.57;;
28028;SDS011;15345;59.364;18.016;2022-12-29T04:02:21;39.47;;;11.90;;
28028;SDS011;15345;59.364;18.016;2022-12-29T04:03:40;37.75;;;11.20;;
28028;SDS011;15345;59.364;18.016;2022-12-29T04:04:59;39.00;;;10.98;;
28028;SDS011;15345;59.364;18.016;2022-12-29T04:06:17;39.72;;;11.70;;
28028;SDS011;15345;59.364;18.016;2022-12-29T04:07:37;36.70;;;11.25;;
28028;SDS011;15345;59.364;18.016;2022-12-29T04:08:55;33.25;;;10.82;;
28028;SDS011;15345;59.364;18.016;2022-12-29T04:10:14;34.40;;;10.98;;
28028;SDS011;15345;59.364;18.016;2022-12-29T04:11:33;36.88;;;12.15;;
28028;SDS011;15345;59.364;18.016;2022-12-29T04:12:52;33.05;;;11.95;;
28028;SDS011;15345;59.364;18.016;2022-12-29T04:14:11;36.85;;;12.40;;
28028;SDS011;15345;59.364;18.016;2022-12-29T04:15:30;34.88;;;11.63;;
28028;SDS011;15345;59.364;18.016;2022-12-29T04:16:49;32.65;;;11.73;;
28028;SDS011;15345;59.364;18.016;2022-12-29T04:18:08;32.13;;;11.63;;
28028;SDS011;15345;59.364;18.016;2022-12-29T04:19:27;34.35;;;12.10;;
28028;SDS011;15345;59.364;18.016;2022-12-29T04:20:46;31.48;;;11.30;;
28028;SDS011;15345;59.364;18.016;2022-12-29T04:22:21;33.65;;;10.85;;
28028;SDS011;15345;59.364;18.016;2022-12-29T04:23:41;29.40;;;11.50;;
28028;SDS011;15345;59.364;18.016;2022-12-29T04:25:00;33.83;;;12.20;;
28028;SDS011;15345;59.364;18.016;2022-12-29T04:26:19;31.92;;;11.75;;
28028;SDS011;15345;59.364;18.016;2022-12-29T04:27:38;29.90;;;12.45;;
28028;SDS011;15345;59.364;18.016;2022-12-29T04:28:57;36.88;;;12.77;;
28028;SDS011;15345;59.364;18.016;2022-12-29T04:30:15;31.23;;;11.55;;
28028;SDS011;15345;59.364;18.016;2022-12-29T04:31:35;29.38;;;11.48;;
28028;SDS011;15345;59.364;18.016;2022-12-29T04:32:54;26.85;;;11.88;;
28028;SDS011;15345;59.364;18.016;2022-12-29T04:34:13;34.00;;;12.10;;
28028;SDS011;15345;59.364;18.016;2022-12-29T04:35:32;29.85;;;12.07;;
28028;SDS011;15345;59.364;18.016;2022-12-29T04:36:52;32.80;;;12.27;;
28028;SDS011;15345;59.364;18.016;2022-12-29T04:38:11;26.00;;;11.82;;
28028;SDS011;15345;59.364;18.016;2022-12-29T04:39:30;32.95;;;12.65;;
28028;SDS011;15345;59.364;18.016;2022-12-29T04:40:49;29.08;;;12.02;;
28028;SDS011;15345;59.364;18.016;2022-12-29T04:42:08;33.50;;;13.13;;
28028;SDS011;15345;59.364;18.016;2022-12-29T04:43:27;25.75;;;12.68;;
28028;SDS011;15345;59.364;18.016;2022-12-29T04:44:46;27.88;;;13.13;;
28028;SDS011;15345;59.364;18.016;2022-12-29T04:46:06;32.20;;;13.13;;
28028;SDS011;15345;59.364;18.016;2022-12-29T04:47:25;28.35;;;12.48;;
28028;SDS011;15345;59.364;18.016;2022-12-29T04:48:43;32.28;;;13.35;;
28028;SDS011;15345;59.364;18.016;2022-12-29T04:50:02;32.55;;;13.02;;
28028;SDS011;15345;59.364;18.016;2022-12-29T04:51:21;33.42;;;13.63;;
28028;SDS011;15345;59.364;18.016;2022-12-29T04:52:40;29.20;;;12.90;;
28028;SDS011;15345;59.364;18.016;2022-12-29T04:53:59;37.97;;;14.02;;
28028;SDS011;15345;59.364;18.016;2022-12-29T04:55:18;31.40;;;12.77;;
28028;SDS011;15345;59.364;18.016;2022-12-29T04:56:37;31.63;;;13.23;;
28028;SDS011;15345;59.364;18.016;2022-12-29T04:57:56;30.25;;;12.52;;
28028;SDS011;15345;59.364;18.016;2022-12-29T04:59:15;32.95;;;13.18;;
28028;SDS011;15345;59.364;18.016;2022-12-29T05:00:34;26.65;;;12.30;;
28028;SDS011;15345;59.364;18.016;2022-12-29T05:01:53;29.08;;;13.30;;
28028;SDS011;15345;59.364;18.016;2022-12-29T05:03:11;33.33;;;13.25;;
28028;SDS011;15345;59.364;18.016;2022-12-29T05:04:30;32.67;;;14.18;;
28028;SDS011;15345;59.364;18.016;2022-12-29T05:05:52;32.58;;;13.23;;
28028;SDS011;15345;59.364;18.016;2022-12-29T05:07:11;31.45;;;13.32;;
28028;SDS011;15345;59.364;18.016;2022-12-29T05:08:30;30.10;;;13.90;;
28028;SDS011;15345;59.364;18.016;2022-12-29T05:09:48;39.63;;;13.02;;
28028;SDS011;15345;59.364;18.016;2022-12-29T05:11:08;28.70;;;13.18;;
28028;SDS011;15345;59.364;18.016;2022-12-29T05:12:29;31.42;;;13.15;;
28028;SDS011;15345;59.364;18.016;2022-12-29T05:13:48;28.88;;;13.13;;
28028;SDS011;15345;59.364;18.016;2022-12-29T05:15:08;31.90;;;12.90;;
28028;SDS011;15345;59.364;18.016;2022-12-29T05:16:27;28.08;;;12.95;;
28028;SDS011;15345;59.364;18.016;2022-12-29T05:17:46;29.17;;;13.07;;
28028;SDS011;15345;59.364;18.016;2022-12-29T05:19:07;35.40;;;13.25;;
28028;SDS011;15345;59.364;18.016;2022-12-29T05:20:26;31.90;;;12.65;;
28028;SDS011;15345;59.364;18.016;2022-12-29T05:21:45;30.98;;;13.10;;
28028;SDS011;15345;59.364;18.016;2022-12-29T05:23:04;34.05;;;13.32;;
28028;SDS011;15345;59.364;18.016;2022-12-29T05:24:23;34.67;;;13.63;;
28028;SDS011;15345;59.364;18.016;2022-12-29T05:25:43;28.10;;;13.52;;
28028;SDS011;15345;59.364;18.016;2022-12-29T05:27:03;31.08;;;12.57;;
28028;SDS011;15345;59.364;18.016;2022-12-29T05:28:22;30.98;;;13.63;;
28028;SDS011;15345;59.364;18.016;2022-12-29T05:29:41;36.65;;;14.57;;
28028;SDS011;15345;59.364;18.016;2022-12-29T05:31:00;35.85;;;14.77;;
28028;SDS011;15345;59.364;18.016;2022-12-29T05:32:19;34.55;;;14.18;;
28028;SDS011;15345;59.364;18.016;2022-12-29T05:33:38;33.15;;;13.95;;
28028;SDS011;15345;59.364;18.016;2022-12-29T05:34:57;30.75;;;13.38;;
28028;SDS011;15345;59.364;18.016;2022-12-29T05:36:16;32.03;;;14.43;;
28028;SDS011;15345;59.364;18.016;2022-12-29T05:37:35;33.83;;;13.65;;
28028;SDS011;15345;59.364;18.016;2022-12-29T05:38:54;33.60;;;13.23;;
28028;SDS011;15345;59.364;18.016;2022-12-29T05:40:13;34.45;;;14.20;;
28028;SDS011;15345;59.364;18.016;2022-12-29T05:41:32;35.92;;;14.90;;
28028;SDS011;15345;59.364;18.016;2022-12-29T05:42:51;39.20;;;14.13;;
28028;SDS011;15345;59.364;18.016;2022-12-29T05:44:10;40.92;;;13.88;;
28028;SDS011;15345;59.364;18.016;2022-12-29T05:45:29;31.75;;;13.63;;
28028;SDS011;15345;59.364;18.016;2022-12-29T05:46:49;33.38;;;13.30;;
28028;SDS011;15345;59.364;18.016;2022-12-29T05:48:07;34.80;;;13.55;;
28028;SDS011;15345;59.364;18.016;2022-12-29T05:49:26;28.85;;;12.48;;
28028;SDS011;15345;59.364;18.016;2022-12-29T05:50:48;28.92;;;12.75;;
28028;SDS011;15345;59.364;18.016;2022-12-29T05:52:08;30.83;;;12.82;;
28028;SDS011;15345;59.364;18.016;2022-12-29T05:53:26;32.72;;;13.43;;
28028;SDS011;15345;59.364;18.016;2022-12-29T05:54:46;31.77;;;12.43;;
28028;SDS011;15345;59.364;18.016;2022-12-29T05:56:05;34.80;;;14.32;;
28028;SDS011;15345;59.364;18.016;2022-12-29T05:57:24;33.00;;;13.95;;
28028;SDS011;15345;59.364;18.016;2022-12-29T05:58:43;34.45;;;13.27;;
28028;SDS011;15345;59.364;18.016;2022-12-29T06:00:03;34.70;;;12.75;;
28028;SDS011;15345;59.364;18.016;2022-12-29T06:01:22;34.17;;;13.43;;
28028;SDS011;15345;59.364;18.016;2022-12-29T06:02:41;28.33;;;12.85;;
28028;SDS011;15345;59.364;18.016;2022-12-29T06:04:00;24.55;;;11.85;;
28028;SDS011;15345;59.364;18.016;2022-12-29T06:05:19;29.63;;;12.90;;
28028;SDS011;15345;59.364;18.016;2022-12-29T06:06:38;26.73;;;12.23;;
28028;SDS011;15345;59.364;18.016;2022-12-29T06:07:58;32.30;;;12.75;;
28028;SDS011;15345;59.364;18.016;2022-12-29T06:09:17;31.60;;;11.88;;
28028;SDS011;15345;59.364;18.016;2022-12-29T06:10:36;27.30;;;11.52;;
28028;SDS011;15345;59.364;18.016;2022-12-29T06:11:55;26.15;;;10.93;;
28028;SDS011;15345;59.364;18.016;2022-12-29T06:13:14;27.63;;;11.57;;
28028;SDS011;15345;59.364;18.016;2022-12-29T06:14:32;24.48;;;11.35;;
28028;SDS011;15345;59.364;18.016;2022-12-29T06:15:51;31.15;;;11.60;;
28028;SDS011;15345;59.364;18.016;2022-12-29T06:17:11;25.60;;;11.60;;
28028;SDS011;15345;59.364;18.016;2022-12-29T06:18:30;31.13;;;11.98;;
28028;SDS011;15345;59.364;18.016;2022-12-29T06:19:48;33.30;;;11.45;;
28028;SDS011;15345;59.364;18.016;2022-12-29T06:21:07;30.25;;;10.63;;
28028;SDS011;15345;59.364;18.016;2022-12-29T06:22:26;25.92;;;10.45;;
28028;SDS011;15345;59.364;18.016;2022-12-29T06:23:45;23.98;;;10.25;;
28028;SDS011;15345;59.364;18.016;2022-12-29T06:25:04;29.13;;;11.52;;
28028;SDS011;15345;59.364;18.016;2022-12-29T06:26:23;28.58;;;10.23;;
28028;SDS011;15345;59.364;18.016;2022-12-29T06:27:42;34.70;;;12.05;;
28028;SDS011;15345;59.364;18.016;2022-12-29T06:29:02;31.77;;;10.95;;
28028;SDS011;15345;59.364;18.016;2022-12-29T06:30:22;39.15;;;11.07;;
28028;SDS011;15345;59.364;18.016;2022-12-29T06:31:41;33.10;;;11.45;;
28028;SDS011;15345;59.364;18.016;2022-12-29T06:32:59;31.15;;;10.27;;
28028;SDS011;15345;59.364;18.016;2022-12-29T06:34:19;36.13;;;10.90;;
28028;SDS011;15345;59.364;18.016;2022-12-29T06:35:38;33.58;;;10.93;;
28028;SDS011;15345;59.364;18.016;2022-12-29T06:36:57;35.65;;;10.75;;
28028;SDS011;15345;59.364;18.016;2022-12-29T06:38:17;29.73;;;10.30;;
28028;SDS011;15345;59.364;18.016;2022-12-29T06:39:36;35.97;;;11.60;;
28028;SDS011;15345;59.364;18.016;2022-12-29T06:40:55;33.95;;;10.30;;
28028;SDS011;15345;59.364;18.016;2022-12-29T06:42:14;44.83;;;11.80;;
28028;SDS011;15345;59.364;18.016;2022-12-29T06:43:32;36.80;;;11.70;;
28028;SDS011;15345;59.364;18.016;2022-12-29T06:44:52;38.90;;;10.32;;
28028;SDS011;15345;59.364;18.016;2022-12-29T06:46:11;36.03;;;10.82;;
28028;SDS011;15345;59.364;18.016;2022-12-29T06:47:29;36.75;;;10.45;;
28028;SDS011;15345;59.364;18.016;2022-12-29T06:48:49;36.67;;;10.93;;
28028;SDS011;15345;59.364;18.016;2022-12-29T06:50:08;38.03;;;10.25;;
28028;SDS011;15345;59.364;18.016;2022-12-29T06:51:27;36.83;;;11.93;;
28028;SDS011;15345;59.364;18.016;2022-12-29T06:52:46;43.60;;;11.00;;
28028;SDS011;15345;59.364;18.016;2022-12-29T06:54:05;44.05;;;11.50;;
28028;SDS011;15345;59.364;18.016;2022-12-29T06:55:24;44.22;;;10.98;;
28028;SDS011;15345;59.364;18.016;2022-12-29T06:56:43;40.45;;;11.25;;
28028;SDS011;15345;59.364;18.016;2022-12-29T06:58:02;40.90;;;11.18;;
28028;SDS011;15345;59.364;18.016;2022-12-29T06:59:21;50.75;;;11.40;;
28028;SDS011;15345;59.364;18.016;2022-12-29T07:00:39;44.25;;;12.40;;
28028;SDS011;15345;59.364;18.016;2022-12-29T07:01:58;45.38;;;11.57;;
28028;SDS011;15345;59.364;18.016;2022-12-29T07:03:17;53.90;;;12.68;;
28028;SDS011;15345;59.364;18.016;2022-12-29T07:04:36;59.33;;;12.70;;
28028;SDS011;15345;59.364;18.016;2022-12-29T07:05:55;48.42;;;11.52;;
28028;SDS011;15345;59.364;18.016;2022-12-29T07:07:16;43.65;;;11.63;;
28028;SDS011;15345;59.364;18.016;2022-12-29T07:08:35;40.30;;;11.55;;
28028;SDS011;15345;59.364;18.016;2022-12-29T07:09:53;42.70;;;11.82;;
28028;SDS011;15345;59.364;18.016;2022-12-29T07:11:12;51.38;;;12.00;;
28028;SDS011;15345;59.364;18.016;2022-12-29T07:12:31;48.13;;;12.05;;
28028;SDS011;15345;59.364;18.016;2022-12-29T07:13:50;54.70;;;13.13;;
28028;SDS011;15345;59.364;18.016;2022-12-29T07:15:09;55.47;;;11.98;;
28028;SDS011;15345;59.364;18.016;2022-12-29T07:16:28;58.55;;;13.02;;
28028;SDS011;15345;59.364;18.016;2022-12-29T07:17:48;45.15;;;14.07;;
28028;SDS011;15345;59.364;18.016;2022-12-29T07:19:08;59.08;;;14.00;;
28028;SDS011;15345;59.364;18.016;2022-12-29T07:20:27;66.13;;;13.63;;
28028;SDS011;15345;59.364;18.016;2022-12-29T07:21:46;63.08;;;13.68;;
28028;SDS011;15345;59.364;18.016;2022-12-29T07:23:04;62.00;;;14.10;;
28028;SDS011;15345;59.364;18.016;2022-12-29T07:24:23;68.47;;;14.27;;
28028;SDS011;15345;59.364;18.016;2022-12-29T07:25:44;54.70;;;13.10;;
28028;SDS011;15345;59.364;18.016;2022-12-29T07:27:03;65.30;;;14.07;;
28028;SDS011;15345;59.364;18.016;2022-12-29T07:28:22;69.68;;;14.70;;
28028;SDS011;15345;59.364;18.016;2022-12-29T07:29:41;85.63;;;16.38;;
28028;SDS011;15345;59.364;18.016;2022-12-29T07:31:01;71.28;;;14.82;;
28028;SDS011;15345;59.364;18.016;2022-12-29T07:32:20;58.25;;;14.40;;
28028;SDS011;15345;59.364;18.016;2022-12-29T07:33:39;85.75;;;16.42;;
28028;SDS011;15345;59.364;18.016;2022-12-29T07:34:58;64.78;;;14.85;;
28028;SDS011;15345;59.364;18.016;2022-12-29T07:36:17;77.90;;;15.50;;
28028;SDS011;15345;59.364;18.016;2022-12-29T07:37:36;88.00;;;15.65;;
28028;SDS011;15345;59.364;18.016;2022-12-29T07:38:55;73.78;;;15.63;;
28028;SDS011;15345;59.364;18.016;2022-12-29T07:40:14;81.40;;;16.20;;
28028;SDS011;15345;59.364;18.016;2022-12-29T07:41:33;59.40;;;13.30;;
28028;SDS011;15345;59.364;18.016;2022-12-29T07:42:53;78.00;;;16.23;;
28028;SDS011;15345;59.364;18.016;2022-12-29T07:44:12;69.45;;;14.75;;
28028;SDS011;15345;59.364;18.016;2022-12-29T07:45:31;67.97;;;15.38;;
28028;SDS011;15345;59.364;18.016;2022-12-29T07:46:50;80.55;;;15.98;;
28028;SDS011;15345;59.364;18.016;2022-12-29T07:48:09;74.00;;;15.15;;
28028;SDS011;15345;59.364;18.016;2022-12-29T07:49:28;70.10;;;14.55;;
28028;SDS011;15345;59.364;18.016;2022-12-29T07:50:47;77.68;;;13.82;;
28028;SDS011;15345;59.364;18.016;2022-12-29T07:52:06;69.13;;;14.15;;
28028;SDS011;15345;59.364;18.016;2022-12-29T07:53:25;74.70;;;13.68;;
28028;SDS011;15345;59.364;18.016;2022-12-29T07:54:44;57.83;;;14.18;;
28028;SDS011;15345;59.364;18.016;2022-12-29T07:56:04;64.85;;;14.65;;
28028;SDS011;15345;59.364;18.016;2022-12-29T07:57:23;65.82;;;14.40;;
28028;SDS011;15345;59.364;18.016;2022-12-29T07:58:42;64.07;;;14.00;;
28028;SDS011;15345;59.364;18.016;2022-12-29T08:00:01;65.57;;;14.52;;
28028;SDS011;15345;59.364;18.016;2022-12-29T08:01:20;60.67;;;13.95;;
28028;SDS011;15345;59.364;18.016;2022-12-29T08:02:41;61.63;;;12.40;;
28028;SDS011;15345;59.364;18.016;2022-12-29T08:04:00;60.22;;;13.65;;
28028;SDS011;15345;59.364;18.016;2022-12-29T08:05:19;63.15;;;13.77;;
28028;SDS011;15345;59.364;18.016;2022-12-29T08:06:38;55.63;;;12.60;;
28028;SDS011;15345;59.364;18.016;2022-12-29T08:07:56;57.05;;;12.52;;
28028;SDS011;15345;59.364;18.016;2022-12-29T08:09:15;47.40;;;11.82;;
28028;SDS011;15345;59.364;18.016;2022-12-29T08:10:34;51.05;;;11.55;;
28028;SDS011;15345;59.364;18.016;2022-12-29T08:11:54;51.97;;;12.32;;
28028;SDS011;15345;59.364;18.016;2022-12-29T08:13:13;51.55;;;12.80;;
28028;SDS011;15345;59.364;18.016;2022-12-29T08:14:32;51.20;;;12.15;;
28028;SDS011;15345;59.364;18.016;2022-12-29T08:15:51;41.47;;;10.63;;
28028;SDS011;15345;59.364;18.016;2022-12-29T08:17:10;43.50;;;11.27;;